Map

Track Data

SID SEASON NUMBER BASIN SUBBASIN NAME ISO_TIME NATURE LAT LON WMO_WIND WMO_PRES WMO_AGENCY TRACK_TYPE DIST2LAND LANDFALL IFLAG USA_AGENCY USA_ATCF_ID USA_LAT USA_LON USA_RECORD USA_STATUS USA_WIND USA_PRES USA_SSHS USA_R34_NE USA_R34_SE USA_R34_SW USA_R34_NW USA_R50_NE USA_R50_SE USA_R50_SW USA_R50_NW USA_R64_NE USA_R64_SE USA_R64_SW USA_R64_NW USA_POCI USA_ROCI USA_RMW USA_EYE TOKYO_LAT TOKYO_LON TOKYO_GRADE TOKYO_WIND TOKYO_PRES TOKYO_R50_DIR TOKYO_R50_LONG TOKYO_R50_SHORT TOKYO_R30_DIR TOKYO_R30_LONG TOKYO_R30_SHORT TOKYO_LAND CMA_LAT CMA_LON CMA_CAT CMA_WIND CMA_PRES HKO_LAT HKO_LON HKO_CAT HKO_WIND HKO_PRES NEWDELHI_LAT NEWDELHI_LON NEWDELHI_GRADE NEWDELHI_WIND NEWDELHI_PRES NEWDELHI_CI NEWDELHI_DP NEWDELHI_POCI REUNION_LAT REUNION_LON REUNION_TYPE REUNION_WIND REUNION_PRES REUNION_TNUM REUNION_CI REUNION_RMW REUNION_R34_NE REUNION_R34_SE REUNION_R34_SW REUNION_R34_NW REUNION_R50_NE REUNION_R50_SE REUNION_R50_SW REUNION_R50_NW REUNION_R64_NE REUNION_R64_SE REUNION_R64_SW REUNION_R64_NW BOM_LAT BOM_LON BOM_TYPE BOM_WIND BOM_PRES BOM_TNUM BOM_CI BOM_RMW BOM_R34_NE BOM_R34_SE BOM_R34_SW BOM_R34_NW BOM_R50_NE BOM_R50_SE BOM_R50_SW BOM_R50_NW BOM_R64_NE BOM_R64_SE BOM_R64_SW BOM_R64_NW BOM_ROCI BOM_POCI BOM_EYE BOM_POS_METHOD BOM_PRES_METHOD NADI_LAT NADI_LON NADI_CAT NADI_WIND NADI_PRES WELLINGTON_LAT WELLINGTON_LON WELLINGTON_WIND WELLINGTON_PRES DS824_LAT DS824_LON DS824_STAGE DS824_WIND DS824_PRES TD9636_LAT TD9636_LON TD9636_STAGE TD9636_WIND TD9636_PRES TD9635_LAT TD9635_LON TD9635_WIND TD9635_PRES TD9635_ROCI NEUMANN_LAT NEUMANN_LON NEUMANN_CLASS NEUMANN_WIND NEUMANN_PRES MLC_LAT MLC_LON MLC_CLASS MLC_WIND MLC_PRES USA_GUST BOM_GUST BOM_GUST_PER REUNION_GUST REUNION_GUST_PER USA_SEAHGT USA_SEARAD_NE USA_SEARAD_SE USA_SEARAD_SW USA_SEARAD_NW STORM_SPEED STORM_DIR
2000045S14100 2000 10 SI WA MARCIA 2000-02-14 10:00:00 NR -13.8000 99.7000 25 1000 bom main 988 956 ______O_______ -1 -13.8000 99.7000 20 25 1000 2.00000 107 3 5 17 87
2000045S14100 2000 10 SI WA MARCIA 2000-02-14 12:00:00 NR -13.7687 100.280 main 949 893 ______P_______ -1 -13.7687 100.280 20 25 1000 107 16 87
2000045S14100 2000 10 SI WA MARCIA 2000-02-14 15:00:00 NR -13.7257 101.107 main 893 857 ______P_______ -1 -13.7257 101.107 20 25 1000 107 15 87
2000045S14100 2000 10 SI WA MARCIA 2000-02-14 18:00:00 NR -13.6969 101.825 main 857 835 ______P_______ -1 -13.6969 101.825 20 25 1000 107 12 88
2000045S14100 2000 10 SI WA MARCIA 2000-02-14 21:00:00 NR -13.6935 102.369 main 830 824 ______P_______ -1 -13.6935 102.369 20 25 1000 107 10 90
2000045S14100 2000 10 SI WA MARCIA 2000-02-14 22:00:00 NR -13.7000 102.500 25 1000 bom main 824 813 ______O_______ -1 -13.7000 102.500 20 25 1000 2.00000 107 3 5 6 97
2000045S14100 2000 10 SI WA MARCIA 2000-02-15 00:00:00 NR -13.7289 102.681 main 813 813 ______P_______ -1 -13.7289 102.681 20 25 1000 107 4 116
2000045S14100 2000 10 SI WA MARCIA 2000-02-15 03:00:00 NR -13.8385 102.793 main 817 817 ______P_______ -1 -13.8385 102.793 20 25 1000 107 3 145
2000045S14100 2000 10 SI WA MARCIA 2000-02-15 04:00:00 NR -13.9000 102.800 25 1000 bom main 827 827 ______O_______ -1 -13.9000 102.800 20 25 1000 2.00000 107 3 5 7 215
2000045S14100 2000 10 SI WA MARCIA 2000-02-15 06:00:00 TS -14.1059 102.602 main 857 857 ______P_____O_ -1 -14.0824 102.802 20 26 1000 107 -14.2000 101.800 TC 30 1000 6 207
2000045S14100 2000 10 SI WA MARCIA 2000-02-15 09:00:00 TS -14.3138 102.584 main 877 877 ______P_____P_ -1 -14.4043 102.731 20 29 1000 107 -14.1328 102.290 TC 30 999 4 183
2000045S14100 2000 10 SI WA MARCIA 2000-02-15 10:00:00 TS -14.3430 102.588 30 1000 bom main 877 877 ______O_____P_ -1 -14.5000 102.700 20 30 1000 2.50000 107 3 5 -14.1336 102.440 TC 30 999 3 137
2000045S14100 2000 10 SI WA MARCIA 2000-02-15 12:00:00 TS -14.4103 102.674 main 881 881 ______P_____O_ -1 -14.6206 102.649 20 30 999 107 -14.2000 102.700 TC 30 999 4 148
2000045S14100 2000 10 SI WA MARCIA 2000-02-15 15:00:00 TS -14.6008 102.758 main 897 897 ______P_____P_ -1 -14.7243 102.561 20 32 997 107 -14.4773 102.955 TC 30 999 4 172
2000045S14100 2000 10 SI WA MARCIA 2000-02-15 18:00:00 TS -14.7843 102.738 main 921 921 ______P_____O_ -1 -14.7685 102.476 20 33 996 107 -14.8000 103.000 TC 30 999 3 207
2000045S14100 2000 10 SI WA MARCIA 2000-02-15 21:00:00 TS -14.8968 102.600 main 936 936 ______P_____P_ -1 -14.7909 102.413 20 34 995 107 -15.0026 102.788 TC 32 998 4 233
2000045S14100 2000 10 SI WA MARCIA 2000-02-15 22:00:00 TS -14.9240 102.543 35 995 bom main 941 941 ______O_____P_ -1 -14.8000 102.400 30 35 995 3.00000 107 3 5 -15.0480 102.687 TC 33 997 3 246
2000045S14100 2000 10 SI WA MARCIA 2000-02-16 00:00:00 TS -14.9649 102.440 main 956 956 ______P_____O_ -1 -14.8298 102.380 30 35 995 124 -15.1000 102.500 TC 35 997 2 255
2000045S14100 2000 10 SI WA MARCIA 2000-02-16 03:00:00 TS -14.9716 102.355 main 956 956 ______P_____P_ -1 -14.8782 102.386 30 35 995 151 -15.0649 102.325 TC 37 995 1 267
2000045S14100 2000 10 SI WA MARCIA 2000-02-16 04:00:00 TS -14.9696 102.348 35 995 bom main 961 956 ______O_____P_ -1 -14.9000 102.400 30 35 995 3.00000 161 3 5 -15.0392 102.295 TC 38 994 0 0
2000045S14100 2000 10 SI WA MARCIA 2000-02-16 06:00:00 TS -14.9739 102.370 main 956 951 ______P_____O_ -1 -14.9479 102.440 30 35 995 161 -15.0000 102.300 TC 40 993 2 111
2000045S14100 2000 10 SI WA MARCIA 2000-02-16 09:00:00 TS -15.0363 102.524 main 951 951 ______P_____P_ -1 -15.0526 102.550 30 35 995 161 -15.0201 102.498 TC 42 992 4 114
2000045S14100 2000 10 SI WA MARCIA 2000-02-16 10:00:00 TS -15.0700 102.598 35 995 bom main 956 952 ______O_____P_ -1 -15.1000 102.600 30 35 995 3.00000 161 3 5 -15.0401 102.595 TC 43 992 5 118
2000045S14100 2000 10 SI WA MARCIA 2000-02-16 12:00:00 TS -15.1561 102.759 main 957 953 ______P_____O_ -1 -15.2121 102.718 30 35 995 161 -15.1000 102.800 TC 45 992 6 123
2000045S14100 2000 10 SI WA MARCIA 2000-02-16 15:00:00 TS -15.3212 103.004 main 959 959 ______P_____P_ -1 -15.4224 102.928 30 35 995 161 -15.2200 103.080 TC 40 994 6 127
2000045S14100 2000 10 SI WA MARCIA 2000-02-16 16:00:00 TS -15.3867 103.082 35 995 bom main 965 965 ______O_____P_ -1 -15.5000 103.000 30 35 995 3.00000 161 3 5 -15.2734 103.165 TC 38 994 6 136
2000045S14100 2000 10 SI WA MARCIA 2000-02-16 18:00:00 TS -15.5375 103.217 main 971 971 ______P_____O_ -1 -15.6750 103.133 30 35 995 161 -15.4000 103.300 TC 35 996 6 147
2000045S14100 2000 10 SI WA MARCIA 2000-02-16 21:00:00 TS -15.7830 103.349 main 999 995 ______P_____P_ -1 -15.9312 103.333 30 35 995 161 -15.6349 103.365 TC 35 997 5 153
2000045S14100 2000 10 SI WA MARCIA 2000-02-16 22:00:00 TS -15.8612 103.386 35 995 bom main 1006 1006 ______O_____P_ -1 -16.0000 103.400 30 35 995 3.00000 161 3 5 -15.7224 103.373 TC 35 997 5 153
2000045S14100 2000 10 SI WA MARCIA 2000-02-17 00:00:00 TS -15.9979 103.467 main 1013 1013 ______P_____O_ -1 -16.0958 103.533 30 35 995 161 -15.9000 103.400 TC 35 998 5 143
2000045S14100 2000 10 SI WA MARCIA 2000-02-17 03:00:00 TS -16.1801 103.634 main 1031 1028 ______P_____P_ -1 -16.1802 103.733 30 35 995 161 -16.1800 103.535 TC 32 999 5 137
2000045S14100 2000 10 SI WA MARCIA 2000-02-17 04:00:00 TS -16.2325 103.695 35 995 bom main 1028 1028 ______O_____P_ -1 -16.2000 103.800 30 35 995 3.00000 161 3 5 -16.2649 103.589 TC 31 999 5 128
2000045S14100 2000 10 SI WA MARCIA 2000-02-17 06:00:00 TS -16.3233 103.825 main 1036 1033 ______P_____O_ -1 -16.2467 103.950 30 33 996 143 -16.4000 103.700 TC 30 1000 4 118
2000045S14100 2000 10 SI WA MARCIA 2000-02-17 09:00:00 TS -16.3896 104.004 main 1041 1041 ______P_____P_ -1 -16.2917 104.150 30 30 999 116 -16.4875 103.858 TC 27 1001 3 109
2000045S14100 2000 10 SI WA MARCIA 2000-02-17 10:00:00 TS -16.3981 104.054 30 1000 bom main 1038 1038 ______O_____P_ -1 -16.3000 104.200 20 30 1000 2.50000 107 3 5 -16.4963 103.908 TC 26 1001 2 97
2000045S14100 2000 10 SI WA MARCIA 2000-02-17 12:00:00 TS -16.4039 104.129 main 1038 1035 ______P_____O_ -1 -16.3079 104.257 20 28 1000 107 -16.5000 104.000 TC 25 1002 2 86
2000045S14100 2000 10 SI WA MARCIA 2000-02-17 15:00:00 TS -16.3872 104.214 main 1035 1035 ______P_____P_ -1 -16.3026 104.291 20 25 1000 107 -16.5000 104.110 TC 25 1002 2 72
2000045S14100 2000 10 SI WA MARCIA 2000-02-17 16:00:00 TS -16.3667 104.247 25 1000 bom main 1035 1022 ______O_____P_ -1 -16.3000 104.300 20 25 1000 2.00000 107 3 5 -16.5000 104.141 TC 25 1002 2 66
2000045S14100 2000 10 SI WA MARCIA 2000-02-17 18:00:00 TS -16.3443 104.311 main 1022 1020 ______P_____O_ -1 -16.3054 104.339 20 25 1000 107 -16.5000 104.200 TC 25 1003 2 66
2000045S14100 2000 10 SI WA MARCIA 2000-02-17 21:00:00 NR -16.3057 104.389 main 1020 1020 ______P_______ -1 -16.3057 104.389 20 25 1000 107 TC 1 63
2000045S14100 2000 10 SI WA MARCIA 2000-02-17 22:00:00 NR -16.3000 104.400 25 1000 bom main 1020 1020 ______O_______ -1 -16.3000 104.400 20 25 1000 2.00000 107 3 5 TC 1 39
2000045S14100 2000 10 SI WA MARCIA 2000-02-18 00:00:00 NR -16.2528 104.419 main 1020 1009 ______P_______ -1 -16.2528 104.419 20 25 1000 107 1 8
2000045S14100 2000 10 SI WA MARCIA 2000-02-18 03:00:00 NR -16.1964 104.414 main 1009 1009 ______P_______ -1 -16.1964 104.414 20 25 1000 107 1 341
2000045S14100 2000 10 SI WA MARCIA 2000-02-18 04:00:00 NR -16.2000 104.400 25 1000 bom main 1009 1009 ______O_______ -1 -16.2000 104.400 20 25 1000 2.00000 107 3 5 2 219
2000045S14100 2000 10 SI WA MARCIA 2000-02-18 06:00:00 NR -16.2580 104.351 main 1020 1020 ______P_______ -1 -16.2580 104.351 20 25 1000 107 3 213
2000045S14100 2000 10 SI WA MARCIA 2000-02-18 09:00:00 NR -16.4317 104.241 main 1035 1035 ______P_______ -1 -16.4317 104.241 20 25 1000 107 4 210
2000045S14100 2000 10 SI WA MARCIA 2000-02-18 10:00:00 NR -16.5000 104.200 25 1000 bom main 1046 ______O_______ -1 -16.5000 104.200 20 25 1000 2.00000 107 3 5 5 210

About IBTrACS Database

This database is a web-friendly format of International Best Track Archive for Climate Stewardship (IBTrACS), a global best track data archive curated by NOAA dating back to 1842.

Updated: 2021-12-03